Time;durP1;ratioP1;P1;durP2;ratioP2;P2;SDS_P1;SDS_P2;PMS_P1;PMS_P2;Temp;Humidity;BMP_temperature;BMP_pressure;BME280_temperature;BME280_humidity;BME280_pressure;Samples;Min_cycle;Max_cycle;Signal;HPM_P1;HPM_P2
2023/03/02 00:02:09;;;;;;;10.52;9.60;;;5.80;99.90;;;;;;5024240;28;20326;-79
2023/03/02 00:04:41;;;;;;;11.90;10.73;;;5.80;99.90;;;;;;5022606;28;20228;-81
2023/03/02 00:07:14;;;;;;;11.18;10.07;;;5.80;99.90;;;;;;5010241;28;20269;-79
2023/03/02 00:09:45;;;;;;;10.13;9.23;;;5.80;99.90;;;;;;5008730;28;20219;-80
2023/03/02 00:12:14;;;;;;;10.63;9.63;;;5.70;99.90;;;;;;5023305;28;20223;-80
2023/03/02 00:14:42;;;;;;;11.30;10.18;;;5.70;99.90;;;;;;5025538;28;20204;-79
2023/03/02 00:17:10;;;;;;;10.48;9.48;;;5.60;99.90;;;;;;5010916;28;20209;-79
2023/03/02 00:19:37;;;;;;;10.02;9.13;;;5.60;99.90;;;;;;5012883;28;20604;-79
2023/03/02 00:22:05;;;;;;;12.25;11.05;;;5.60;99.90;;;;;;5021721;28;20227;-82
2023/03/02 00:24:33;;;;;;;11.02;9.93;;;5.50;99.90;;;;;;5025396;28;20195;-79
2023/03/02 00:27:00;;;;;;;11.35;10.35;;;5.60;99.90;;;;;;5022638;28;20286;-80
2023/03/02 00:29:27;;;;;;;11.82;10.73;;;5.60;99.90;;;;;;5021694;28;20220;-79
2023/03/02 00:31:55;;;;;;;12.35;11.25;;;5.50;99.90;;;;;;5020569;28;20290;-79
2023/03/02 00:34:22;;;;;;;13.00;11.70;;;5.50;99.90;;;;;;5023465;28;20656;-79
2023/03/02 00:36:49;;;;;;;11.55;10.55;;;5.50;99.90;;;;;;5007046;28;20743;-79
2023/03/02 00:39:18;;;;;;;13.10;11.90;;;5.50;99.90;;;;;;5021870;28;20319;-79
2023/03/02 00:41:48;;;;;;;13.00;11.73;;;5.50;99.90;;;;;;5022615;28;20234;-79
2023/03/02 00:44:17;;;;;;;12.25;11.10;;;5.50;99.90;;;;;;5021202;28;20216;-79
2023/03/02 00:46:44;;;;;;;13.20;12.00;;;5.50;99.90;;;;;;5021580;28;20215;-79
2023/03/02 00:49:13;;;;;;;11.48;10.38;;;5.50;99.90;;;;;;5017230;28;21905;-79
2023/03/02 00:51:40;;;;;;;10.95;9.95;;;5.60;99.90;;;;;;5002926;28;20287;-79
2023/03/02 00:54:07;;;;;;;11.00;10.10;;;5.60;99.90;;;;;;5001512;28;20196;-79
2023/03/02 00:56:34;;;;;;;10.88;9.88;;;5.70;99.90;;;;;;5003890;28;20296;-79
2023/03/02 00:59:09;;;;;;;11.68;10.60;;;5.70;99.90;;;;;;5024762;28;20318;-79
2023/03/02 01:01:37;;;;;;;10.98;9.98;;;5.70;99.90;;;;;;5022652;28;20306;-79
2023/03/02 01:04:05;;;;;;;10.27;9.38;;;5.70;99.90;;;;;;5021719;28;20645;-79
2023/03/02 01:06:32;;;;;;;11.15;10.15;;;5.70;99.90;;;;;;5023812;28;20204;-79
2023/03/02 01:08:59;;;;;;;11.15;10.18;;;5.70;99.90;;;;;;5025278;28;20754;-78
2023/03/02 01:11:26;;;;;;;10.65;9.65;;;5.80;99.90;;;;;;5020882;28;20319;-79
2023/03/02 01:13:53;;;;;;;9.75;8.85;;;5.80;99.90;;;;;;5025755;28;20208;-79
2023/03/02 01:16:21;;;;;;;10.57;9.60;;;5.80;99.90;;;;;;5026902;28;20329;-79
2023/03/02 01:18:48;;;;;;;10.20;9.23;;;5.90;99.90;;;;;;5026150;28;20251;-79
2023/03/02 01:21:16;;;;;;;10.40;9.43;;;5.90;99.90;;;;;;5021665;28;20290;-79
2023/03/02 01:23:43;;;;;;;9.15;8.35;;;5.90;99.90;;;;;;5022778;28;20295;-79
2023/03/02 01:26:11;;;;;;;9.43;8.52;;;5.90;99.90;;;;;;5004786;28;20203;-79
2023/03/02 01:28:37;;;;;;;9.05;8.30;;;5.90;99.90;;;;;;5025247;28;20302;-79
2023/03/02 01:31:05;;;;;;;8.68;7.88;;;5.90;99.90;;;;;;5025586;28;20234;-80
2023/03/02 01:33:33;;;;;;;10.55;9.52;;;5.90;99.90;;;;;;5026223;28;20299;-80
2023/03/02 01:36:01;;;;;;;9.10;8.30;;;5.90;99.90;;;;;;5025302;28;20276;-79
2023/03/02 01:38:28;;;;;;;8.88;8.07;;;5.90;99.90;;;;;;5006369;28;20239;-79
2023/03/02 01:40:55;;;;;;;8.55;7.82;;;5.90;99.90;;;;;;5025661;28;20290;-79
2023/03/02 01:43:22;;;;;;;6.95;6.40;;;5.90;99.90;;;;;;5024829;28;20652;-79
2023/03/02 01:45:53;;;;;;;7.38;6.78;;;5.90;99.90;;;;;;5025449;28;20306;-79
2023/03/02 01:48:26;;;;;;;8.13;7.13;;;6.00;99.90;;;;;;5006232;28;20314;-79
2023/03/02 01:50:55;;;;;;;7.55;6.85;;;5.90;99.90;;;;;;5022248;28;20231;-79
2023/03/02 01:53:25;;;;;;;7.43;6.82;;;5.90;99.90;;;;;;5023693;28;20294;-79
2023/03/02 01:55:52;;;;;;;9.63;8.73;;;5.90;99.90;;;;;;5025469;28;20290;-79
2023/03/02 01:58:20;;;;;;;9.77;8.88;;;5.90;99.90;;;;;;5023730;28;20286;-79
2023/03/02 02:00:48;;;;;;;11.68;10.57;;;5.90;99.90;;;;;;5025458;28;20299;-79
2023/03/02 02:03:19;;;;;;;10.25;9.35;;;5.90;99.90;;;;;;5023316;28;20299;-79
2023/03/02 02:05:53;;;;;;;10.15;9.25;;;5.90;99.90;;;;;;5026531;28;20299;-79
2023/03/02 02:08:23;;;;;;;9.68;8.88;;;5.90;99.90;;;;;;5023554;28;20283;-79
2023/03/02 02:10:51;;;;;;;9.43;8.57;;;6.00;99.90;;;;;;5021157;28;20323;-79
2023/03/02 02:13:18;;;;;;;9.15;8.35;;;6.00;99.90;;;;;;5007164;28;20268;-80
2023/03/02 02:15:45;;;;;;;9.40;8.60;;;6.00;99.90;;;;;;5025433;28;20234;-79
2023/03/02 02:18:12;;;;;;;9.02;8.23;;;6.00;99.90;;;;;;5025466;28;20235;-79
2023/03/02 02:20:43;;;;;;;9.35;8.38;;;6.00;99.90;;;;;;5006583;28;20342;-79
2023/03/02 02:23:28;;;;;;;9.60;8.70;;;6.00;99.90;;;;;;5007404;28;20229;-80
2023/03/02 02:26:17;;;;;;;8.20;7.50;;;6.00;99.90;;;;;;5025623;28;20620;-79
2023/03/02 02:28:49;;;;;;;8.57;7.75;;;6.00;99.90;;;;;;5005355;28;20640;-80
2023/03/02 02:31:21;;;;;;;8.20;7.47;;;6.00;99.90;;;;;;5004294;28;20203;-79
2023/03/02 02:33:55;;;;;;;9.73;8.82;;;5.90;99.90;;;;;;5027517;28;20211;-79
2023/03/02 02:36:25;;;;;;;9.48;8.57;;;5.80;99.90;;;;;;5011048;28;20298;-79
2023/03/02 02:38:55;;;;;;;9.45;8.65;;;5.80;99.90;;;;;;5022919;28;20302;-79
2023/03/02 02:41:28;;;;;;;9.63;8.73;;;5.80;99.90;;;;;;5021032;28;20235;-80
2023/03/02 02:43:56;;;;;;;9.20;8.40;;;5.80;99.90;;;;;;5009174;28;20200;-79
2023/03/02 02:46:24;;;;;;;9.52;8.63;;;5.80;99.90;;;;;;5039846;28;20203;-80
2023/03/02 02:48:52;;;;;;;9.52;8.65;;;5.80;99.90;;;;;;5029897;28;20215;-79
2023/03/02 02:51:23;;;;;;;9.32;8.52;;;5.80;99.90;;;;;;5031387;28;20200;-82
2023/03/02 02:53:57;;;;;;;9.15;8.25;;;5.90;99.90;;;;;;5030069;28;22065;-79
2023/03/02 02:56:27;;;;;;;9.20;8.35;;;5.80;99.90;;;;;;5028687;28;20242;-79
2023/03/02 02:58:57;;;;;;;9.90;9.00;;;5.80;99.90;;;;;;5009832;28;20249;-79
2023/03/02 03:01:25;;;;;;;9.77;8.88;;;5.70;99.90;;;;;;5029801;28;20306;-79
2023/03/02 03:03:56;;;;;;;9.07;8.27;;;5.60;99.90;;;;;;5009947;28;20257;-79
2023/03/02 03:06:26;;;;;;;9.10;8.30;;;5.60;99.90;;;;;;5010720;28;20889;-79
2023/03/02 03:09:01;;;;;;;8.63;7.93;;;5.70;99.90;;;;;;5023382;28;20228;-80
2023/03/02 03:11:32;;;;;;;7.97;7.28;;;5.70;99.90;;;;;;5010800;28;20205;-79
2023/03/02 03:14:08;;;;;;;8.50;7.70;;;5.70;99.90;;;;;;5029400;28;20204;-82
2023/03/02 03:16:37;;;;;;;7.55;6.95;;;5.80;99.90;;;;;;5029701;28;20719;-80
2023/03/02 03:19:10;;;;;;;7.82;7.22;;;5.80;99.90;;;;;;5030962;28;20298;-79
2023/03/02 03:21:37;;;;;;;8.38;7.68;;;5.90;99.90;;;;;;5012169;28;20652;-79
2023/03/02 03:24:05;;;;;;;7.88;7.20;;;5.90;99.90;;;;;;5030061;28;20302;-79
2023/03/02 03:26:33;;;;;;;8.35;7.70;;;5.90;99.90;;;;;;5028240;28;20243;-78
2023/03/02 03:29:01;;;;;;;7.53;6.90;;;5.90;99.90;;;;;;5008275;28;20216;-79
2023/03/02 03:31:29;;;;;;;8.98;8.10;;;5.90;99.90;;;;;;5010371;28;20553;-79
2023/03/02 03:33:59;;;;;;;7.65;6.90;;;5.80;99.90;;;;;;5030108;28;20697;-79
2023/03/02 03:36:27;;;;;;;7.95;7.25;;;5.80;99.90;;;;;;5027411;28;20295;-80
2023/03/02 03:38:55;;;;;;;7.97;7.28;;;5.80;99.90;;;;;;5030981;28;20226;-80
2023/03/02 03:41:23;;;;;;;7.72;7.03;;;5.80;99.90;;;;;;5027964;28;20238;-79
2023/03/02 03:43:52;;;;;;;7.65;6.97;;;5.80;99.90;;;;;;5005742;28;20302;-79
2023/03/02 03:46:19;;;;;;;7.38;6.68;;;5.70;99.90;;;;;;5029027;28;20239;-79
2023/03/02 03:48:46;;;;;;;7.50;6.85;;;5.70;99.90;;;;;;5011716;28;20307;-79
2023/03/02 03:51:13;;;;;;;7.50;6.80;;;5.70;99.90;;;;;;5009945;28;20199;-80
2023/03/02 03:53:40;;;;;;;7.30;6.70;;;5.70;99.90;;;;;;5025341;28;20284;-79
2023/03/02 03:56:08;;;;;;;6.65;6.03;;;5.60;99.90;;;;;;4993734;28;20682;-80
2023/03/02 03:58:35;;;;;;;6.57;6.00;;;5.60;99.90;;;;;;5027735;28;20318;-79
2023/03/02 04:01:06;;;;;;;6.70;6.10;;;5.60;99.90;;;;;;5008877;28;20282;-79
2023/03/02 04:03:33;;;;;;;6.25;5.75;;;5.60;99.90;;;;;;5029022;28;20306;-79
2023/03/02 04:06:00;;;;;;;6.50;5.95;;;5.50;99.90;;;;;;5030891;28;20246;-78
2023/03/02 04:08:27;;;;;;;5.85;5.35;;;5.50;99.90;;;;;;5021831;28;20266;-78
2023/03/02 04:10:54;;;;;;;5.78;5.38;;;5.50;99.90;;;;;;5029545;28;20718;-78
2023/03/02 04:13:21;;;;;;;6.28;5.75;;;5.40;99.90;;;;;;5011847;28;20206;-78
2023/03/02 04:15:48;;;;;;;6.15;5.65;;;5.40;99.90;;;;;;5027671;28;20290;-78
2023/03/02 04:18:16;;;;;;;6.45;5.95;;;5.40;99.90;;;;;;5022342;28;20283;-78
2023/03/02 04:20:43;;;;;;;5.95;5.45;;;5.40;99.90;;;;;;5025266;28;20304;-78
2023/03/02 04:23:11;;;;;;;6.25;5.75;;;5.30;99.90;;;;;;5012406;28;20752;-78
2023/03/02 04:25:38;;;;;;;6.75;6.25;;;5.30;99.90;;;;;;5024573;28;20236;-78
2023/03/02 04:28:05;;;;;;;5.53;5.13;;;5.30;99.90;;;;;;5027403;28;20269;-78
2023/03/02 04:30:33;;;;;;;6.13;5.63;;;5.30;99.90;;;;;;5030560;28;20258;-78
2023/03/02 04:33:00;;;;;;;5.93;5.43;;;5.20;99.90;;;;;;5030228;28;20877;-78
2023/03/02 04:35:28;;;;;;;6.20;5.70;;;5.20;99.90;;;;;;5023322;28;20227;-78
2023/03/02 04:37:55;;;;;;;5.35;4.95;;;5.20;99.90;;;;;;5026461;28;20791;-77
2023/03/02 04:40:23;;;;;;;5.57;5.07;;;5.20;99.90;;;;;;5024862;28;20255;-77
2023/03/02 04:42:50;;;;;;;7.20;5.90;;;5.20;99.90;;;;;;5010983;28;20279;-78
2023/03/02 04:45:17;;;;;;;5.45;4.97;;;5.20;99.90;;;;;;5024363;28;20759;-78
2023/03/02 04:47:45;;;;;;;6.05;4.90;;;5.20;99.90;;;;;;5023407;28;20282;-78
2023/03/02 04:50:14;;;;;;;6.68;5.70;;;5.20;99.90;;;;;;5026850;28;20607;-78
2023/03/02 04:52:43;;;;;;;5.57;5.18;;;5.20;99.90;;;;;;5023149;28;20857;-78
2023/03/02 04:55:15;;;;;;;5.70;5.20;;;5.20;99.90;;;;;;5024768;28;20235;-78
2023/03/02 04:57:42;;;;;;;5.85;5.45;;;5.20;99.90;;;;;;5026530;28;20631;-78
2023/03/02 05:00:11;;;;;;;5.70;5.30;;;5.20;99.90;;;;;;5008028;28;20310;-78
2023/03/02 05:02:40;;;;;;;5.40;5.00;;;5.30;99.90;;;;;;5024185;28;20215;-78
2023/03/02 05:05:08;;;;;;;5.72;5.22;;;5.30;99.90;;;;;;5029243;28;20235;-77
2023/03/02 05:07:35;;;;;;;6.70;6.20;;;5.30;99.90;;;;;;5027937;28;20211;-78
2023/03/02 05:10:04;;;;;;;7.22;6.63;;;5.30;99.90;;;;;;5027155;28;20310;-78
2023/03/02 05:12:56;;;;;;;7.85;7.05;;;5.30;99.90;;;;;;5026103;28;20230;-78
2023/03/02 05:15:18;;;;;;;6.68;6.07;;;5.40;99.90;;;;;;5021711;28;20295;-78
2023/03/02 05:17:45;;;;;;;6.80;6.20;;;5.40;99.90;;;;;;5025004;28;20250;-78
2023/03/02 05:20:13;;;;;;;7.75;7.13;;;5.40;99.90;;;;;;5026422;28;20262;-78
2023/03/02 05:22:40;;;;;;;7.45;6.85;;;5.40;99.90;;;;;;5004585;28;20215;-78
2023/03/02 05:25:10;;;;;;;8.10;7.40;;;5.30;99.90;;;;;;5023269;28;20238;-78
2023/03/02 05:27:37;;;;;;;7.25;6.50;;;5.40;99.90;;;;;;5020477;28;20231;-78
2023/03/02 05:30:05;;;;;;;7.70;7.10;;;5.40;99.90;;;;;;5025960;28;20306;-78
2023/03/02 05:32:32;;;;;;;7.35;6.60;;;5.40;99.90;;;;;;5024094;28;20231;-78
2023/03/02 05:34:59;;;;;;;6.85;6.25;;;5.30;99.90;;;;;;5024513;28;20227;-78
2023/03/02 05:37:26;;;;;;;7.25;6.60;;;5.30;99.90;;;;;;5024131;28;20239;-78
2023/03/02 05:39:53;;;;;;;6.72;6.13;;;5.30;99.90;;;;;;5025611;28;20314;-78
2023/03/02 05:42:21;;;;;;;6.47;5.88;;;5.30;99.90;;;;;;5022350;28;20783;-78
2023/03/02 05:44:48;;;;;;;6.28;5.78;;;5.30;99.90;;;;;;5007934;28;20204;-75
2023/03/02 05:47:15;;;;;;;6.13;5.63;;;5.30;99.90;;;;;;5006724;28;20743;-74
2023/03/02 05:49:42;;;;;;;7.85;7.20;;;5.40;99.90;;;;;;5024616;28;20310;-74
2023/03/02 05:52:10;;;;;;;8.13;7.28;;;5.40;99.90;;;;;;5025340;28;20282;-75
2023/03/02 05:54:37;;;;;;;8.07;7.38;;;5.40;99.90;;;;;;5023510;28;20246;-76
2023/03/02 05:57:04;;;;;;;7.50;6.80;;;5.40;99.90;;;;;;5024747;28;20286;-74
2023/03/02 05:59:32;;;;;;;8.18;7.15;;;5.30;99.90;;;;;;5024296;28;20777;-74
2023/03/02 06:02:00;;;;;;;8.55;7.63;;;5.40;99.90;;;;;;5024314;28;20287;-74
2023/03/02 06:04:27;;;;;;;7.18;6.57;;;5.40;99.90;;;;;;5022971;28;20303;-74
2023/03/02 06:06:53;;;;;;;8.52;7.80;;;5.40;99.90;;;;;;5023606;28;20882;-74
2023/03/02 06:09:21;;;;;;;7.85;7.20;;;5.40;99.90;;;;;;5024444;28;20309;-74
2023/03/02 06:11:48;;;;;;;11.18;9.20;;;5.40;99.90;;;;;;5022117;28;20234;-75
2023/03/02 06:14:15;;;;;;;7.88;7.18;;;5.30;99.90;;;;;;5024457;28;20282;-75
2023/03/02 06:16:43;;;;;;;8.52;7.75;;;5.40;99.90;;;;;;5023784;28;20357;-74
2023/03/02 06:19:11;;;;;;;8.05;7.35;;;5.40;99.90;;;;;;5025427;28;20405;-74
2023/03/02 06:21:38;;;;;;;8.93;8.13;;;5.30;99.90;;;;;;5020451;28;20298;-74
2023/03/02 06:24:05;;;;;;;9.10;8.20;;;5.30;99.90;;;;;;5024908;28;20302;-75
2023/03/02 06:26:32;;;;;;;7.82;7.18;;;5.30;99.90;;;;;;5024127;28;20287;-76
2023/03/02 06:28:59;;;;;;;8.27;7.40;;;5.30;99.90;;;;;;5006389;28;20262;-75
2023/03/02 06:31:26;;;;;;;7.70;7.00;;;5.40;99.90;;;;;;5023359;28;20295;-74
2023/03/02 06:33:54;;;;;;;7.53;6.82;;;5.40;99.90;;;;;;5023028;28;20287;-74
2023/03/02 06:36:21;;;;;;;7.90;7.20;;;5.40;99.90;;;;;;5025297;28;20310;-75
2023/03/02 06:38:48;;;;;;;9.13;8.32;;;5.40;99.90;;;;;;5024665;28;20413;-75
2023/03/02 06:41:16;;;;;;;7.53;6.75;;;5.40;99.90;;;;;;5021980;28;20290;-74
2023/03/02 06:43:44;;;;;;;7.97;7.18;;;5.40;99.90;;;;;;5006562;28;20763;-75
2023/03/02 06:46:11;;;;;;;7.38;6.63;;;5.50;99.90;;;;;;5025369;28;20286;-75
2023/03/02 06:48:39;;;;;;;7.53;6.93;;;5.60;99.90;;;;;;5024044;28;20228;-75
2023/03/02 06:51:11;;;;;;;8.05;7.35;;;5.60;99.90;;;;;;5022739;28;20307;-77
2023/03/02 06:53:38;;;;;;;11.20;7.43;;;5.70;99.90;;;;;;5025469;28;20196;-77
2023/03/02 06:56:07;;;;;;;6.40;5.90;;;5.80;99.90;;;;;;5007700;28;20205;-77
2023/03/02 06:58:34;;;;;;;7.70;7.00;;;5.80;99.90;;;;;;5026624;28;20220;-77
2023/03/02 07:01:00;;;;;;;7.90;7.20;;;5.80;99.90;;;;;;5024907;28;20235;-74
2023/03/02 07:03:28;;;;;;;8.45;7.07;;;5.90;99.90;;;;;;5021811;28;20800;-75
2023/03/02 07:05:55;;;;;;;10.55;7.93;;;5.90;99.90;;;;;;5035077;28;20222;-76
2023/03/02 07:08:23;;;;;;;8.10;7.40;;;5.90;99.90;;;;;;5044958;28;20203;-75
2023/03/02 07:10:50;;;;;;;8.65;7.78;;;6.00;99.90;;;;;;5034607;28;20234;-75
2023/03/02 07:13:17;;;;;;;8.45;7.57;;;6.00;99.90;;;;;;5010645;28;20777;-75
2023/03/02 07:15:45;;;;;;;8.07;7.38;;;6.10;99.90;;;;;;5010804;28;20633;-76
2023/03/02 07:18:11;;;;;;;8.85;8.02;;;6.10;99.90;;;;;;5028751;28;20258;-74
2023/03/02 07:20:39;;;;;;;8.98;8.18;;;6.20;99.90;;;;;;5007302;28;20211;-76
2023/03/02 07:23:06;;;;;;;8.90;8.07;;;6.20;99.90;;;;;;5023198;28;20223;-75
2023/03/02 07:25:35;;;;;;;8.32;7.53;;;6.20;99.90;;;;;;5023695;28;20282;-75
2023/03/02 07:28:03;;;;;;;7.53;6.82;;;6.30;99.90;;;;;;5020853;28;20196;-73
2023/03/02 07:30:30;;;;;;;7.43;6.82;;;6.30;99.90;;;;;;5021611;28;20718;-72
2023/03/02 07:32:58;;;;;;;8.48;7.78;;;6.40;99.90;;;;;;5024846;28;20219;-73
2023/03/02 07:35:25;;;;;;;8.20;7.40;;;6.50;99.90;;;;;;5018784;28;20215;-73
2023/03/02 07:37:52;;;;;;;8.98;8.07;;;6.60;99.90;;;;;;5022676;28;20235;-75
2023/03/02 07:40:19;;;;;;;9.25;8.32;;;6.60;99.90;;;;;;5027181;28;20315;-74
2023/03/02 07:42:50;;;;;;;9.70;8.80;;;6.60;99.90;;;;;;5027286;28;20286;-73
2023/03/02 07:45:19;;;;;;;10.38;9.38;;;6.60;99.90;;;;;;5022145;28;20249;-73
2023/03/02 07:47:46;;;;;;;8.85;8.05;;;6.40;99.90;;;;;;5025442;28;20204;-73
2023/03/02 07:50:13;;;;;;;9.10;8.23;;;6.30;99.90;;;;;;5028314;28;20258;-73
2023/03/02 07:52:40;;;;;;;8.63;7.82;;;6.30;99.90;;;;;;5024507;28;20650;-73
2023/03/02 07:55:08;;;;;;;10.55;9.45;;;6.30;99.90;;;;;;5006302;28;20238;-73
2023/03/02 07:57:36;;;;;;;9.43;8.63;;;6.30;99.90;;;;;;5021822;28;20296;-74
2023/03/02 08:00:06;;;;;;;10.80;8.38;;;6.40;99.90;;;;;;5020658;28;20247;-73
2023/03/02 08:02:33;;;;;;;8.85;7.95;;;6.50;99.90;;;;;;5028328;28;20292;-73
2023/03/02 08:05:02;;;;;;;8.93;8.00;;;6.60;99.90;;;;;;5025049;28;20251;-77
2023/03/02 08:07:30;;;;;;;8.63;7.78;;;6.80;99.90;;;;;;5029011;28;20206;-78
2023/03/02 08:09:59;;;;;;;9.30;8.50;;;6.90;99.90;;;;;;5028713;28;20311;-78
2023/03/02 08:12:27;;;;;;;9.55;8.68;;;7.00;99.90;;;;;;5029730;28;20200;-77
2023/03/02 08:14:54;;;;;;;9.85;8.95;;;7.10;99.90;;;;;;5003320;28;20227;-77
2023/03/02 08:17:23;;;;;;;9.73;8.93;;;7.10;99.90;;;;;;5023630;28;20245;-76
2023/03/02 08:19:50;;;;;;;9.85;8.85;;;7.10;99.90;;;;;;5028486;28;20255;-76
2023/03/02 08:22:17;;;;;;;8.65;7.82;;;7.10;99.90;;;;;;5025969;28;20238;-76
2023/03/02 08:24:45;;;;;;;9.63;8.73;;;7.00;99.90;;;;;;5023926;28;20219;-77
2023/03/02 08:27:14;;;;;;;11.55;8.80;;;7.00;99.90;;;;;;5009545;28;20207;-74
2023/03/02 08:29:41;;;;;;;8.98;8.07;;;7.00;99.90;;;;;;5009030;28;20250;-75
2023/03/02 08:32:11;;;;;;;10.50;9.18;;;6.90;99.90;;;;;;5025938;28;20717;-74
2023/03/02 08:34:39;;;;;;;10.27;9.27;;;6.90;99.90;;;;;;5009342;28;20863;-74
2023/03/02 08:37:06;;;;;;;9.43;8.55;;;6.90;99.90;;;;;;5027232;28;20199;-74
2023/03/02 08:39:34;;;;;;;9.93;9.00;;;6.90;99.90;;;;;;5009469;28;20219;-75
2023/03/02 08:42:02;;;;;;;11.48;8.85;;;7.00;99.90;;;;;;5026151;28;20223;-75
2023/03/02 08:44:29;;;;;;;10.18;9.18;;;7.00;99.90;;;;;;5025675;28;20717;-74
2023/03/02 08:47:01;;;;;;;9.93;8.93;;;7.00;99.90;;;;;;5025513;28;20247;-76
2023/03/02 08:49:28;;;;;;;10.88;9.50;;;7.10;99.90;;;;;;5008519;28;20665;-70
2023/03/02 08:51:58;;;;;;;9.95;8.93;;;7.10;99.90;;;;;;5007183;28;20283;-73
2023/03/02 08:54:25;;;;;;;10.43;9.23;;;7.00;99.90;;;;;;5008632;28;20282;-73
2023/03/02 08:56:54;;;;;;;9.48;8.57;;;7.00;99.90;;;;;;5023210;28;20204;-73
2023/03/02 08:59:21;;;;;;;9.13;8.32;;;7.00;99.90;;;;;;5024374;28;20285;-74
2023/03/02 09:01:49;;;;;;;8.88;7.93;;;7.10;99.90;;;;;;5023461;28;21128;-71
2023/03/02 09:04:21;;;;;;;11.10;10.00;;;7.10;99.90;;;;;;5020828;28;20310;-75
2023/03/02 09:06:48;;;;;;;9.23;8.35;;;7.20;99.90;;;;;;5024828;28;20238;-76
2023/03/02 09:09:17;;;;;;;11.15;9.27;;;7.30;99.90;;;;;;5010388;28;20258;-77
2023/03/02 09:11:45;;;;;;;9.23;8.43;;;7.40;99.90;;;;;;5025848;28;20228;-75
2023/03/02 09:14:18;;;;;;;10.35;9.32;;;7.40;99.90;;;;;;5024231;28;20238;-75
2023/03/02 09:16:46;;;;;;;10.23;9.23;;;7.40;99.90;;;;;;5026059;28;20203;-76
2023/03/02 09:19:14;;;;;;;9.07;8.20;;;7.40;99.90;;;;;;5025492;28;20219;-77
2023/03/02 09:21:41;;;;;;;8.77;7.97;;;7.40;99.90;;;;;;5026507;28;20219;-76
2023/03/02 09:24:08;;;;;;;8.93;8.05;;;7.50;99.90;;;;;;5029569;28;20306;-74
2023/03/02 09:26:38;;;;;;;11.48;8.77;;;7.70;99.90;;;;;;5022726;28;20227;-74
2023/03/02 09:29:05;;;;;;;12.38;11.10;;;7.90;99.90;;;;;;5026407;28;20623;-75
2023/03/02 09:31:32;;;;;;;10.68;9.68;;;7.90;99.90;;;;;;5020777;28;20203;-75
2023/03/02 09:33:59;;;;;;;8.90;8.10;;;7.90;99.90;;;;;;5004367;28;20199;-74
2023/03/02 09:36:27;;;;;;;9.20;8.30;;;7.90;99.90;;;;;;5026036;28;20262;-75
2023/03/02 09:38:55;;;;;;;10.57;9.57;;;7.80;99.90;;;;;;5025860;28;20231;-75
2023/03/02 09:41:54;;;;;;;11.35;9.38;;;7.80;99.90;;;;;;5027897;28;20267;-76
2023/03/02 09:44:54;;;;;;;9.82;8.90;;;7.70;99.90;;;;;;5023122;28;20396;-75
2023/03/02 09:47:28;;;;;;;10.07;9.07;;;7.80;99.90;;;;;;5002851;28;20262;-75
2023/03/02 09:50:03;;;;;;;9.73;8.70;;;7.70;99.90;;;;;;5017563;28;20218;-75
2023/03/02 09:52:35;;;;;;;9.52;8.63;;;7.70;99.90;;;;;;5008351;28;20356;-74
2023/03/02 09:55:14;;;;;;;10.57;9.57;;;7.60;99.90;;;;;;5025384;28;20227;-75
2023/03/02 09:57:43;;;;;;;9.00;8.10;;;7.60;99.90;;;;;;5024019;28;20302;-76
2023/03/02 10:00:19;;;;;;;9.38;8.40;;;7.60;99.90;;;;;;5025331;28;20255;-76
2023/03/02 10:02:48;;;;;;;9.38;8.48;;;7.80;99.90;;;;;;5005757;28;20209;-74
2023/03/02 10:05:20;;;;;;;11.45;10.30;;;7.90;99.90;;;;;;5025623;28;20310;-75
2023/03/02 10:07:48;;;;;;;10.77;9.77;;;7.80;99.90;;;;;;5025466;28;20891;-75
2023/03/02 10:10:26;;;;;;;11.32;10.23;;;7.80;99.90;;;;;;5025462;28;20254;-75
2023/03/02 10:13:06;;;;;;;11.90;10.60;;;7.80;99.90;;;;;;5025784;28;20735;-75
2023/03/02 10:15:40;;;;;;;12.70;10.73;;;7.80;99.90;;;;;;5026000;28;20223;-75
2023/03/02 10:18:17;;;;;;;10.88;9.88;;;7.90;99.90;;;;;;5024716;28;20239;-75
2023/03/02 10:20:49;;;;;;;12.00;10.73;;;7.90;99.90;;;;;;5023745;28;20206;-75
2023/03/02 10:23:33;;;;;;;12.43;10.18;;;8.10;99.90;;;;;;5021768;28;20201;-75
2023/03/02 10:26:07;;;;;;;12.27;11.07;;;8.10;99.90;;;;;;5007886;28;20277;-76
2023/03/02 10:28:41;;;;;;;11.75;10.63;;;8.10;99.90;;;;;;5002602;28;20226;-76
2023/03/02 10:31:14;;;;;;;16.63;10.98;;;8.00;99.90;;;;;;5022730;28;20741;-76
2023/03/02 10:33:42;;;;;;;14.80;11.20;;;8.20;99.90;;;;;;5021887;28;20215;-77
2023/03/02 10:36:20;;;;;;;11.60;10.40;;;8.30;99.90;;;;;;5007060;28;20261;-77
2023/03/02 10:38:47;;;;;;;12.65;11.20;;;8.60;99.90;;;;;;5025404;28;20286;-77
2023/03/02 10:41:18;;;;;;;12.07;10.30;;;8.90;99.90;;;;;;5033375;28;20227;-75
2023/03/02 10:43:47;;;;;;;9.95;8.95;;;9.00;99.90;;;;;;5037398;28;20207;-76
2023/03/02 10:46:16;;;;;;;9.43;8.43;;;9.00;99.90;;;;;;5023979;28;20501;-76
2023/03/02 10:48:53;;;;;;;11.25;10.07;;;8.90;99.90;;;;;;5021647;28;20251;-78
2023/03/02 10:51:26;;;;;;;9.77;8.88;;;8.90;99.90;;;;;;5020963;28;20203;-76
2023/03/02 10:54:04;;;;;;;9.55;8.65;;;8.80;99.90;;;;;;5022477;28;20234;-75
2023/03/02 10:56:32;;;;;;;9.15;8.35;;;8.90;99.90;;;;;;5025435;28;20242;-76
2023/03/02 10:59:02;;;;;;;8.50;7.70;;;9.10;99.90;;;;;;5025188;28;20257;-76
2023/03/02 11:01:31;;;;;;;8.77;7.88;;;9.10;99.90;;;;;;5020767;28;20734;-75
2023/03/02 11:04:00;;;;;;;9.73;8.35;;;9.20;99.90;;;;;;5020686;28;20242;-76
2023/03/02 11:06:29;;;;;;;9.18;8.27;;;9.20;99.90;;;;;;5024097;28;20239;-75
2023/03/02 11:09:01;;;;;;;9.95;8.95;;;9.20;99.90;;;;;;5002992;28;20749;-75
2023/03/02 11:11:29;;;;;;;8.95;8.15;;;9.20;99.90;;;;;;5021348;28;20895;-76
2023/03/02 11:14:07;;;;;;;8.82;8.13;;;9.20;99.90;;;;;;5024445;28;20243;-75
2023/03/02 11:16:35;;;;;;;10.32;9.32;;;9.30;99.90;;;;;;5025423;28;20732;-76
2023/03/02 11:19:05;;;;;;;10.20;9.18;;;9.40;99.90;;;;;;5023225;28;20273;-76
2023/03/02 11:21:35;;;;;;;9.77;8.60;;;9.50;99.90;;;;;;5021613;28;20266;-75
2023/03/02 11:24:09;;;;;;;10.35;9.43;;;9.60;99.90;;;;;;5007789;28;20200;-77
2023/03/02 11:26:41;;;;;;;12.43;10.75;;;9.80;99.90;;;;;;5025714;28;20787;-76
2023/03/02 11:29:16;;;;;;;12.95;10.75;;;10.00;99.90;;;;;;5021077;28;20306;-76
2023/03/02 11:31:49;;;;;;;11.50;10.30;;;10.20;99.90;;;;;;5023633;28;20203;-77
2023/03/02 11:34:30;;;;;;;11.55;9.73;;;10.50;99.90;;;;;;5021236;28;20235;-75
2023/03/02 11:37:13;;;;;;;10.70;9.57;;;10.70;99.90;;;;;;5004481;28;20210;-77
2023/03/02 11:40:04;;;;;;;10.35;9.25;;;10.70;99.90;;;;;;5003630;28;20608;-75
2023/03/02 11:42:34;;;;;;;12.68;10.07;;;10.80;99.90;;;;;;5025531;28;20203;-76
2023/03/02 11:45:05;;;;;;;10.32;9.32;;;10.90;99.90;;;;;;5023140;28;20310;-81
2023/03/02 11:47:36;;;;;;;11.93;10.27;;;11.00;99.90;;;;;;5023908;28;20203;-74
2023/03/02 11:50:06;;;;;;;10.13;9.07;;;11.00;99.90;;;;;;5009843;28;20252;-80
2023/03/02 11:52:38;;;;;;;9.75;8.75;;;11.40;99.90;;;;;;4982314;28;20224;-78
2023/03/02 11:55:15;;;;;;;10.30;9.23;;;11.90;99.90;;;;;;5014194;28;20240;-75
2023/03/02 11:57:48;;;;;;;12.80;8.50;;;12.10;99.90;;;;;;5009982;28;20758;-78
2023/03/02 12:00:31;;;;;;;10.65;9.60;;;12.40;99.90;;;;;;5015539;28;20224;-76
2023/03/02 12:03:02;;;;;;;9.93;8.93;;;12.80;99.90;;;;;;5001710;28;20252;-77
2023/03/02 12:05:33;;;;;;;9.60;8.80;;;12.50;99.90;;;;;;4998354;28;20235;-73
2023/03/02 12:08:03;;;;;;;11.52;10.43;;;12.20;99.90;;;;;;4980704;28;20574;-75
2023/03/02 12:10:34;;;;;;;10.15;9.13;;;12.10;99.90;;;;;;5005638;28;20315;-79
2023/03/02 12:13:17;;;;;;;10.20;9.00;;;11.80;99.90;;;;;;5004261;28;20274;-77
2023/03/02 12:15:45;;;;;;;10.75;9.48;;;11.70;99.90;;;;;;5007001;28;20259;-76
2023/03/02 12:18:42;;;;;;;9.52;8.63;;;12.00;99.90;;;;;;5003822;28;20204;-77
2023/03/02 12:21:13;;;;;;;10.27;9.13;;;12.80;99.90;;;;;;5006715;28;20311;-72
2023/03/02 12:24:02;;;;;;;9.45;8.45;;;13.10;99.90;;;;;;5006152;28;20303;-73
2023/03/02 12:26:37;;;;;;;11.43;8.90;;;13.10;99.90;;;;;;5006764;28;20729;-72
2023/03/02 12:29:23;;;;;;;11.95;8.75;;;13.30;99.90;;;;;;5003750;28;20251;-73
2023/03/02 12:31:54;;;;;;;8.70;7.80;;;13.10;99.90;;;;;;5007560;28;20212;-73
2023/03/02 12:34:35;;;;;;;9.45;8.43;;;12.60;99.90;;;;;;5006126;28;20218;-76
2023/03/02 12:37:07;;;;;;;10.35;7.35;;;12.10;99.90;;;;;;5010635;28;20212;-76
2023/03/02 12:40:10;;;;;;;9.23;8.25;;;11.70;99.90;;;;;;5009849;28;20246;-77
2023/03/02 12:42:51;;;;;;;8.05;7.35;;;11.60;99.90;;;;;;5009742;28;20200;-75
2023/03/02 12:45:34;;;;;;;9.00;8.10;;;11.70;99.90;;;;;;5011623;28;20213;-76
2023/03/02 12:48:04;;;;;;;7.93;7.22;;;12.00;99.90;;;;;;5012238;28;20306;-77
2023/03/02 12:50:38;;;;;;;7.75;7.00;;;11.90;99.90;;;;;;5005361;28;20877;-77
2023/03/02 12:53:10;;;;;;;7.90;7.10;;;11.80;99.90;;;;;;5006440;28;20208;-76
2023/03/02 12:55:39;;;;;;;6.88;6.18;;;11.80;99.90;;;;;;5005400;28;20224;-76
2023/03/02 12:58:18;;;;;;;6.50;5.88;;;11.70;99.90;;;;;;5001424;28;20237;-77
2023/03/02 13:00:51;;;;;;;8.15;5.82;;;11.70;99.90;;;;;;4999692;28;21037;-77
2023/03/02 13:03:18;;;;;;;7.05;6.38;;;11.70;99.90;;;;;;5022986;28;20581;-76
2023/03/02 13:05:47;;;;;;;6.18;5.57;;;11.60;99.90;;;;;;4991296;28;20281;-76